Time;durP1;ratioP1;P1;durP2;ratioP2;P2;SDS_P1;SDS_P2;PMS_P1;PMS_P2;Temp;Humidity;BMP_temperature;BMP_pressure;BME280_temperature;BME280_humidity;BME280_pressure;Samples;Min_cycle;Max_cycle;Signal;HPM_P1;HPM_P2
2021/11/24 00:01:43;;;;;;;21.27;2.63;;;;;;;8.75;100.00;101414.41;5012682;28;20492;-76
2021/11/24 00:04:08;;;;;;;18.92;2.75;;;;;;;8.87;100.00;101425.59;5012919;28;20045;-76
2021/11/24 00:06:33;;;;;;;16.90;2.50;;;;;;;8.89;100.00;101415.53;4995714;28;20563;-75
2021/11/24 00:08:59;;;;;;;16.55;2.15;;;;;;;8.91;100.00;101417.03;5013251;28;20115;-76
2021/11/24 00:11:26;;;;;;;19.73;2.75;;;;;;;8.85;100.00;101414.22;5011296;28;20348;-75
2021/11/24 00:13:51;;;;;;;20.35;2.85;;;;;;;8.92;100.00;101424.06;5013071;28;20037;-76
2021/11/24 00:16:17;;;;;;;20.63;2.47;;;;;;;8.76;100.00;101389.25;5012575;28;20017;-75
2021/11/24 00:18:43;;;;;;;18.73;2.65;;;;;;;8.92;100.00;101418.72;5013711;28;20030;-75
2021/11/24 00:21:08;;;;;;;17.38;2.63;;;;;;;8.97;100.00;101420.03;5012583;28;20344;-75
2021/11/24 00:23:35;;;;;;;18.65;2.80;;;;;;;8.93;100.00;101408.81;4996540;28;20033;-76
2021/11/24 00:26:00;;;;;;;19.48;2.85;;;;;;;8.88;100.00;101400.44;5015381;28;20025;-75
2021/11/24 00:28:26;;;;;;;23.27;2.63;;;;;;;8.88;100.00;101417.38;5016214;28;20034;-75
2021/11/24 00:30:52;;;;;;;21.67;2.95;;;;;;;8.83;100.00;101417.06;5016108;28;20412;-75
2021/11/24 00:33:18;;;;;;;20.77;3.00;;;;;;;8.88;100.00;101411.19;5013386;28;20465;-75
2021/11/24 00:35:43;;;;;;;22.70;2.95;;;;;;;8.84;100.00;101399.09;5013147;28;20092;-76
2021/11/24 00:38:09;;;;;;;12.10;2.10;;;;;;;8.82;100.00;101390.41;5012268;28;20141;-76
2021/11/24 00:40:34;;;;;;;20.38;2.58;;;;;;;8.67;100.00;101384.91;5012658;28;20117;-75
2021/11/24 00:42:59;;;;;;;16.85;2.72;;;;;;;8.75;100.00;101405.53;5012282;28;20502;-76
2021/11/24 00:45:25;;;;;;;20.67;2.80;;;;;;;8.68;100.00;101400.00;5012609;28;20030;-76
2021/11/24 00:47:50;;;;;;;19.98;2.72;;;;;;;8.65;100.00;101401.19;5010593;28;20515;-75
2021/11/24 00:50:17;;;;;;;12.00;2.80;;;;;;;8.65;100.00;101403.88;5011413;28;20124;-75
2021/11/24 00:52:43;;;;;;;20.58;2.70;;;;;;;8.63;100.00;101410.41;5012748;28;20038;-75
2021/11/24 00:55:09;;;;;;;15.23;2.85;;;;;;;8.68;100.00;101405.38;5011687;28;20164;-75
2021/11/24 00:57:34;;;;;;;19.33;1.73;;;;;;;8.70;100.00;101406.03;5013329;28;20045;-76
2021/11/24 01:00:00;;;;;;;14.63;1.85;;;;;;;8.53;100.00;101370.38;5011264;28;20034;-75
2021/11/24 01:02:25;;;;;;;16.45;2.30;;;;;;;8.74;100.00;101398.47;5011103;28;20041;-76
2021/11/24 01:04:50;;;;;;;20.00;2.53;;;;;;;8.73;100.00;101402.16;5012511;28;20030;-75
2021/11/24 01:07:16;;;;;;;14.57;2.55;;;;;;;8.77;100.00;101406.16;5011370;28;20049;-75
2021/11/24 01:09:42;;;;;;;13.52;2.50;;;;;;;8.80;100.00;101408.50;5012835;28;20120;-76
2021/11/24 01:12:09;;;;;;;19.42;2.85;;;;;;;8.82;100.00;101409.19;5012179;28;20478;-76
2021/11/24 01:14:34;;;;;;;15.20;2.15;;;;;;;8.75;100.00;101392.94;5010965;28;20038;-76
2021/11/24 01:17:00;;;;;;;13.98;2.13;;;;;;;8.82;100.00;101406.50;5013723;28;20092;-75
2021/11/24 01:19:25;;;;;;;14.57;1.98;;;;;;;8.82;100.00;101403.81;4995332;28;20026;-76
2021/11/24 01:21:51;;;;;;;22.02;2.83;;;;;;;8.84;100.00;101407.16;4994651;28;20049;-76
2021/11/24 01:24:16;;;;;;;17.52;3.17;;;;;;;8.66;100.00;101384.06;5011977;28;20029;-76
2021/11/24 01:26:42;;;;;;;14.98;2.70;;;;;;;8.82;100.00;101406.50;5011092;28;20065;-76
2021/11/24 01:29:08;;;;;;;15.48;2.38;;;;;;;8.82;100.00;101393.91;4978004;28;20034;-75
2021/11/24 01:31:33;;;;;;;20.73;2.67;;;;;;;8.80;100.00;101401.28;5013583;28;20026;-75
2021/11/24 01:33:59;;;;;;;20.02;3.00;;;;;;;8.80;100.00;101395.09;5012447;28;20021;-75
2021/11/24 01:36:26;;;;;;;15.80;2.25;;;;;;;8.79;100.00;101407.69;5019691;28;20109;-76
2021/11/24 01:38:52;;;;;;;15.93;2.60;;;;;;;8.83;100.00;101400.13;5018272;28;20076;-75
2021/11/24 01:41:17;;;;;;;20.88;2.72;;;;;;;8.83;100.00;101403.63;5017127;28;20025;-75
2021/11/24 01:43:43;;;;;;;18.58;2.75;;;;;;;8.68;100.00;101376.69;5015640;28;20452;-75
2021/11/24 01:46:10;;;;;;;17.33;2.92;;;;;;;8.80;100.00;101392.41;5017071;28;20025;-75
2021/11/24 01:48:37;;;;;;;18.73;2.42;;;;;;;8.81;100.00;101389.56;5029665;28;20125;-76
2021/11/24 01:51:02;;;;;;;19.40;3.10;;;;;;;8.82;100.00;101393.91;5015353;28;20060;-75
2021/11/24 01:53:29;;;;;;;16.17;2.30;;;;;;;8.78;100.00;101397.97;5014717;28;20393;-77
2021/11/24 01:55:58;;;;;;;15.13;2.75;;;;;;;8.77;100.00;101398.13;5014892;28;20463;-76
2021/11/24 01:58:25;;;;;;;17.20;2.60;;;;;;;8.74;100.00;101390.41;5014716;28;20061;-75
2021/11/24 02:00:52;;;;;;;16.55;2.35;;;;;;;8.67;100.00;101372.31;5015319;28;20045;-75
2021/11/24 02:03:17;;;;;;;20.95;3.40;;;;;;;8.57;100.00;101352.91;5012988;28;20014;-76
2021/11/24 02:05:43;;;;;;;15.60;2.20;;;;;;;8.86;100.00;101386.34;5015037;28;20091;-76
2021/11/24 02:08:08;;;;;;;14.00;1.92;;;;;;;8.87;100.00;101386.19;4998733;28;20056;-76
2021/11/24 02:10:34;;;;;;;12.20;2.47;;;;;;;8.82;100.00;101375.13;5014989;28;20120;-76
2021/11/24 02:13:00;;;;;;;12.27;2.08;;;;;;;8.85;100.00;101374.78;5015854;28;20029;-76
2021/11/24 02:15:25;;;;;;;17.08;2.15;;;;;;;8.86;100.00;101372.94;5015657;28;20025;-75
2021/11/24 02:17:52;;;;;;;19.45;2.72;;;;;;;8.87;100.00;101372.78;5022290;28;20062;-76
2021/11/24 02:20:35;;;;;;;18.77;2.70;;;;;;;8.73;100.00;101343.13;5019830;28;20033;-76
2021/11/24 02:23:04;;;;;;;19.00;2.40;;;;;;;8.87;100.00;101369.25;5020474;28;20022;-76
2021/11/24 02:25:30;;;;;;;13.27;2.00;;;;;;;8.77;100.00;101355.19;5018980;28;20085;-76
2021/11/24 02:27:55;;;;;;;18.92;2.33;;;;;;;8.86;100.00;101365.72;5015434;28;20369;-75
2021/11/24 02:30:21;;;;;;;17.13;2.20;;;;;;;8.88;100.00;101363.72;5013538;28;20062;-75
2021/11/24 02:32:46;;;;;;;18.58;2.47;;;;;;;8.82;100.00;101353.66;5014961;28;20045;-76
2021/11/24 02:35:13;;;;;;;13.48;2.92;;;;;;;8.86;100.00;101352.31;5013726;28;20068;-75
2021/11/24 02:37:39;;;;;;;16.73;2.00;;;;;;;8.69;100.00;101330.06;5014922;28;20089;-75
2021/11/24 02:40:06;;;;;;;18.58;2.47;;;;;;;8.81;100.00;101349.31;5013399;28;20053;-76
2021/11/24 02:42:31;;;;;;;17.30;2.45;;;;;;;8.82;100.00;101348.31;5013964;28;20060;-75
2021/11/24 02:44:57;;;;;;;21.55;2.17;;;;;;;8.83;100.00;101344.59;5013871;28;20168;-75
2021/11/24 02:47:23;;;;;;;15.90;2.05;;;;;;;8.65;100.00;101320.72;5014624;28;20087;-76
2021/11/24 02:49:53;;;;;;;12.45;1.75;;;;;;;8.81;100.00;101349.31;5014434;28;20033;-76
2021/11/24 02:52:20;;;;;;;11.57;2.05;;;;;;;8.61;100.00;101307.78;5014509;28;20026;-76
2021/11/24 02:55:00;;;;;;;18.70;2.67;;;;;;;8.80;100.00;101333.38;4994390;28;20034;-75
2021/11/24 02:57:40;;;;;;;15.88;1.92;;;;;;;8.58;100.00;101302.81;5013736;28;20038;-76
2021/11/24 03:00:18;;;;;;;21.48;2.70;;;;;;;8.82;100.00;101342.94;5014413;28;20026;-76
2021/11/24 03:02:45;;;;;;;12.68;1.92;;;;;;;8.80;100.00;101331.53;5014122;28;20451;-75
2021/11/24 03:05:12;;;;;;;22.08;2.85;;;;;;;8.84;100.00;101340.06;4999029;28;20029;-76
2021/11/24 03:07:38;;;;;;;14.55;2.70;;;;;;;8.73;100.00;101313.63;5015135;28;20039;-75
2021/11/24 03:10:05;;;;;;;14.88;2.38;;;;;;;8.86;100.00;101341.56;5015341;28;20078;-76
2021/11/24 03:12:32;;;;;;;14.80;2.17;;;;;;;8.85;100.00;101336.38;5016053;28;20456;-76
2021/11/24 03:14:58;;;;;;;12.35;1.90;;;;;;;8.84;100.00;101340.06;5016215;28;20359;-75
2021/11/24 03:17:23;;;;;;;15.07;2.00;;;;;;;8.85;100.00;101339.91;4985284;28;20124;-75
2021/11/24 03:19:48;;;;;;;13.55;1.80;;;;;;;8.86;100.00;101335.38;4997705;28;20041;-75
2021/11/24 03:22:22;;;;;;;10.88;1.63;;;;;;;8.89;100.00;101332.34;5016471;28;20058;-75
2021/11/24 03:24:55;;;;;;;11.40;1.92;;;;;;;8.89;100.00;101329.66;5014323;28;20116;-76
2021/11/24 03:27:34;;;;;;;19.48;2.20;;;;;;;8.89;100.00;101327.81;5015318;28;20048;-76
2021/11/24 03:30:02;;;;;;;19.60;2.58;;;;;;;8.87;100.00;101326.28;5013388;28;20061;-76
2021/11/24 03:32:28;;;;;;;12.57;2.30;;;;;;;8.86;100.00;101322.78;5017058;28;20117;-76
2021/11/24 03:34:55;;;;;;;19.20;2.85;;;;;;;8.86;100.00;101321.94;5005214;28;20129;-76
2021/11/24 03:37:20;;;;;;;15.93;2.65;;;;;;;8.88;100.00;101320.78;5028465;28;20030;-76
2021/11/24 03:39:47;;;;;;;22.10;2.63;;;;;;;8.84;100.00;101310.53;5014813;28;20026;-76
2021/11/24 03:42:14;;;;;;;21.15;3.13;;;;;;;8.88;100.00;101314.56;5013093;28;20025;-76
2021/11/24 03:44:40;;;;;;;16.70;2.72;;;;;;;8.86;100.00;101306.69;5013348;28;20026;-76
2021/11/24 03:47:05;;;;;;;16.83;1.83;;;;;;;8.88;100.00;101310.03;5013732;28;20367;-75
2021/11/24 03:49:31;;;;;;;15.45;2.30;;;;;;;8.85;100.00;101310.38;5012258;28;20026;-76
2021/11/24 03:51:57;;;;;;;16.70;2.83;;;;;;;8.92;100.00;101310.53;5012557;28;20125;-75
2021/11/24 03:54:22;;;;;;;14.30;2.10;;;;;;;8.89;100.00;101305.50;5014566;28;20448;-76
2021/11/24 03:56:48;;;;;;;19.48;2.38;;;;;;;8.81;100.00;101300.19;5014124;28;20044;-75
2021/11/24 03:59:13;;;;;;;16.02;2.17;;;;;;;8.78;100.00;101296.00;5012398;28;20033;-75
2021/11/24 04:01:40;;;;;;;17.25;2.35;;;;;;;8.90;100.00;101299.13;5012634;28;20129;-76
2021/11/24 04:04:05;;;;;;;19.20;2.60;;;;;;;8.73;100.00;101279.56;5012641;28;20025;-75
2021/11/24 04:06:32;;;;;;;17.30;2.63;;;;;;;8.85;100.00;101293.44;5012091;28;20428;-76
2021/11/24 04:08:58;;;;;;;14.85;2.33;;;;;;;8.88;100.00;101293.94;4996058;28;20650;-76
2021/11/24 04:11:24;;;;;;;20.45;2.58;;;;;;;8.88;100.00;101304.66;5012967;28;20037;-75
2021/11/24 04:13:50;;;;;;;13.50;2.47;;;;;;;8.79;100.00;101281.56;5011556;28;20448;-76
2021/11/24 04:16:15;;;;;;;16.98;2.33;;;;;;;8.91;100.00;101288.22;5010307;28;20182;-75
2021/11/24 04:18:41;;;;;;;15.77;2.50;;;;;;;8.88;100.00;101293.09;5012234;28;20150;-76
2021/11/24 04:21:06;;;;;;;24.55;2.50;;;;;;;8.88;100.00;101285.88;5014835;28;20470;-76
2021/11/24 04:23:31;;;;;;;17.58;2.33;;;;;;;8.88;100.00;101285.88;5016509;28;20045;-76
2021/11/24 04:25:57;;;;;;;17.55;2.22;;;;;;;8.87;100.00;101280.69;5016037;28;20348;-76
2021/11/24 04:28:22;;;;;;;17.75;2.13;;;;;;;8.93;100.00;101285.34;5014265;28;20034;-75
2021/11/24 04:30:48;;;;;;;19.77;2.67;;;;;;;8.92;100.00;101289.06;5014072;28;20367;-76
2021/11/24 04:33:14;;;;;;;22.58;2.80;;;;;;;8.96;100.00;101292.22;4997721;28;20038;-75
2021/11/24 04:35:40;;;;;;;18.80;2.63;;;;;;;8.97;100.00;101275.09;4995700;28;20033;-76
2021/11/24 04:38:05;;;;;;;25.85;3.38;;;;;;;8.94;100.00;101281.66;5012604;28;20134;-75
2021/11/24 04:40:32;;;;;;;17.33;2.20;;;;;;;8.85;100.00;101271.97;5008993;28;20054;-76
2021/11/24 04:43:00;;;;;;;20.42;2.85;;;;;;;8.95;100.00;101283.34;5012980;28;20026;-75
2021/11/24 04:45:25;;;;;;;19.60;2.60;;;;;;;8.83;100.00;101263.25;5011487;28;20395;-75
2021/11/24 04:47:51;;;;;;;20.10;2.88;;;;;;;8.98;100.00;101284.84;5013387;28;20022;-75
2021/11/24 04:50:17;;;;;;;13.85;2.13;;;;;;;8.93;100.00;101256.66;5011788;28;20026;-76
2021/11/24 04:52:43;;;;;;;23.55;3.20;;;;;;;8.91;100.00;101276.66;5013333;28;20030;-75
2021/11/24 04:55:10;;;;;;;13.98;2.17;;;;;;;8.92;100.00;101263.03;5011560;28;20025;-75
2021/11/24 04:57:37;;;;;;;17.23;2.60;;;;;;;8.97;100.00;101267.03;5009478;28;20029;-75
2021/11/24 05:00:07;;;;;;;16.35;2.67;;;;;;;9.03;100.00;101266.34;5012489;28;20037;-75
2021/11/24 05:02:32;;;;;;;15.43;2.55;;;;;;;9.00;100.00;101266.69;5011028;28;20029;-75
2021/11/24 05:04:58;;;;;;;17.65;2.40;;;;;;;8.93;100.00;101256.66;5013098;28;20030;-75
2021/11/24 05:07:23;;;;;;;13.57;2.47;;;;;;;8.97;100.00;101257.13;5012566;28;20415;-76
2021/11/24 05:09:50;;;;;;;17.13;2.15;;;;;;;9.00;100.00;101262.16;5014683;28;20066;-75
2021/11/24 05:12:15;;;;;;;20.90;2.28;;;;;;;8.97;100.00;101261.66;5012687;28;20542;-76
2021/11/24 05:14:44;;;;;;;18.13;2.60;;;;;;;8.67;100.00;101206.00;5022239;28;20042;-76
2021/11/24 05:17:13;;;;;;;16.85;2.50;;;;;;;8.96;100.00;101254.63;5020752;28;20463;-76
2021/11/24 05:19:42;;;;;;;17.08;1.88;;;;;;;8.94;100.00;101265.56;5005040;28;20033;-76
2021/11/24 05:22:09;;;;;;;18.40;2.78;;;;;;;8.97;100.00;101265.19;5017674;28;20432;-76
2021/11/24 05:24:34;;;;;;;16.65;2.65;;;;;;;8.87;100.00;101254.69;5017458;28;20034;-75
2021/11/24 05:27:00;;;;;;;17.10;2.97;;;;;;;9.04;100.00;101278.72;5017846;28;20032;-76
2021/11/24 05:29:26;;;;;;;22.70;2.88;;;;;;;9.10;100.00;101275.34;5021941;28;20048;-76
2021/11/24 05:31:51;;;;;;;23.88;2.97;;;;;;;9.10;100.00;101288.75;5018845;28;20394;-76
2021/11/24 05:34:18;;;;;;;23.63;3.08;;;;;;;9.12;100.00;101286.75;5016095;28;20121;-76
2021/11/24 05:36:43;;;;;;;16.52;3.00;;;;;;;9.02;100.00;101270.88;5000311;28;20037;-76
2021/11/24 05:39:10;;;;;;;14.43;1.60;;;;;;;9.01;100.00;101271.88;5016586;28;20034;-76
2021/11/24 05:41:41;;;;;;;18.23;3.08;;;;;;;8.98;100.00;101269.56;4996534;28;20029;-76
2021/11/24 05:46:58;;;;;;;23.23;2.25;;;;;;;8.80;100.00;101247.50;5009292;28;20426;-76
2021/11/24 05:49:26;;;;;;;19.45;2.70;;;;;;;8.81;100.00;101271.50;5013516;28;20025;-75
2021/11/24 05:51:57;;;;;;;15.35;2.17;;;;;;;8.93;100.00;101282.66;5027176;28;20435;-76
2021/11/24 05:54:23;;;;;;;20.23;2.80;;;;;;;8.88;100.00;101280.53;5018838;28;20029;-76
2021/11/24 05:56:49;;;;;;;18.92;2.45;;;;;;;8.91;100.00;101276.66;4996554;28;20367;-75
2021/11/24 05:59:17;;;;;;;16.88;2.55;;;;;;;8.90;100.00;101266.91;5009905;28;20109;-75
2021/11/24 06:01:42;;;;;;;13.32;2.30;;;;;;;8.96;100.00;101294.91;5015436;28;20041;-76
2021/11/24 06:04:09;;;;;;;16.33;2.25;;;;;;;8.93;100.00;101296.91;5011387;28;20030;-75
2021/11/24 06:06:36;;;;;;;20.90;2.25;;;;;;;8.77;100.00;101264.78;4992072;28;20053;-75
2021/11/24 06:09:06;;;;;;;16.63;2.30;;;;;;;8.76;100.00;101267.66;5010672;28;20046;-75
2021/11/24 06:11:33;;;;;;;18.17;2.60;;;;;;;8.86;100.00;101274.47;5011465;28;20034;-76
2021/11/24 06:13:59;;;;;;;19.35;3.00;;;;;;;8.83;100.00;101272.16;5009977;28;20045;-75
2021/11/24 06:16:24;;;;;;;12.07;1.85;;;;;;;8.74;100.00;101262.50;5012169;28;20040;-75
2021/11/24 06:18:50;;;;;;;10.77;1.73;;;;;;;8.78;100.00;101282.59;4995001;28;20034;-75
2021/11/24 06:21:19;;;;;;;18.98;2.58;;;;;;;8.78;100.00;101274.53;5010608;28;20038;-75
2021/11/24 06:23:45;;;;;;;19.35;3.15;;;;;;;8.83;100.00;101290.94;5017659;28;20033;-75
2021/11/24 06:26:10;;;;;;;17.77;2.88;;;;;;;8.86;100.00;101287.91;5011463;28;20340;-75
2021/11/24 06:28:36;;;;;;;18.13;2.00;;;;;;;8.89;100.00;101284.88;5009837;28;20360;-75
2021/11/24 06:31:02;;;;;;;16.17;1.90;;;;;;;8.83;100.00;101274.00;5009625;28;20163;-75
2021/11/24 06:33:29;;;;;;;17.08;2.17;;;;;;;8.87;100.00;101272.63;5030781;28;20041;-75
2021/11/24 06:35:56;;;;;;;20.27;2.75;;;;;;;8.96;100.00;101274.25;5012212;28;20045;-75
2021/11/24 06:38:22;;;;;;;21.20;2.85;;;;;;;9.00;100.00;101270.19;5015130;28;20013;-75
2021/11/24 06:40:49;;;;;;;20.02;3.00;;;;;;;8.90;100.00;101264.22;4978680;28;20026;-75
2021/11/24 06:43:14;;;;;;;14.02;2.05;;;;;;;9.00;100.00;101277.41;5011262;28;20038;-75
2021/11/24 06:45:41;;;;;;;19.88;3.35;;;;;;;9.02;100.00;101272.72;5010308;28;20026;-75
2021/11/24 06:48:07;;;;;;;15.73;2.13;;;;;;;9.03;100.00;101274.38;5002217;28;20016;-75
2021/11/24 06:50:33;;;;;;;26.38;3.28;;;;;;;9.03;100.00;101274.38;5012413;28;20036;-75
2021/11/24 06:52:59;;;;;;;20.75;3.33;;;;;;;9.03;100.00;101271.69;5015258;28;20444;-75
2021/11/24 06:55:26;;;;;;;20.10;2.33;;;;;;;9.10;100.00;101280.72;4999061;28;20041;-75
2021/11/24 06:57:51;;;;;;;32.67;3.58;;;;;;;9.03;100.00;101271.69;4995830;28;20034;-75
2021/11/24 07:00:17;;;;;;;22.48;3.38;;;;;;;9.12;100.00;101284.91;5010188;28;20647;-75
2021/11/24 07:02:42;;;;;;;17.70;2.80;;;;;;;9.13;100.00;101293.78;4994884;28;20395;-75
2021/11/24 07:05:10;;;;;;;24.42;3.25;;;;;;;9.16;100.00;101271.94;5007730;28;20064;-75
2021/11/24 07:07:35;;;;;;;27.17;3.22;;;;;;;9.12;100.00;101279.53;5007041;28;20529;-75
2021/11/24 07:10:02;;;;;;;20.85;3.10;;;;;;;9.10;100.00;101275.34;4997166;28;20140;-75
2021/11/24 07:12:27;;;;;;;19.77;2.60;;;;;;;9.13;100.00;101265.06;5016079;28;20092;-74
2021/11/24 07:14:55;;;;;;;20.65;3.22;;;;;;;9.15;100.00;101270.28;5017315;28;20030;-75
2021/11/24 07:17:20;;;;;;;26.13;3.10;;;;;;;9.11;100.00;101263.59;4996533;28;20046;-75
2021/11/24 07:19:46;;;;;;;18.55;3.35;;;;;;;8.97;100.00;101256.28;5014582;28;20113;-75
2021/11/24 07:22:11;;;;;;;25.38;3.47;;;;;;;9.07;100.00;101260.44;5014497;28;20054;-75
2021/11/24 07:24:39;;;;;;;39.85;5.50;;;;;;;9.13;100.00;101280.34;5009409;28;20036;-74
2021/11/24 07:27:05;;;;;;;24.42;3.33;;;;;;;9.14;100.00;101277.50;5030085;28;20040;-75
2021/11/24 07:29:30;;;;;;;28.45;3.90;;;;;;;9.06;100.00;101272.19;5001579;28;20108;-75
2021/11/24 07:31:56;;;;;;;24.70;3.05;;;;;;;9.07;100.00;101271.19;5010857;28;20037;-74
2021/11/24 07:34:21;;;;;;;20.50;2.58;;;;;;;9.16;100.00;101290.75;5007508;28;20053;-74
2021/11/24 07:36:47;;;;;;;27.80;3.33;;;;;;;9.16;100.00;101290.75;5008403;28;20968;-75
2021/11/24 07:39:13;;;;;;;18.48;2.55;;;;;;;9.12;100.00;101286.75;5008025;28;20515;-75
2021/11/24 07:41:39;;;;;;;13.23;2.13;;;;;;;9.10;100.00;101291.44;5016860;28;20116;-74
2021/11/24 07:44:05;;;;;;;22.05;2.50;;;;;;;8.97;100.00;101265.19;5024056;28;20117;-74
2021/11/24 07:46:30;;;;;;;16.73;4.35;;;;;;;9.16;100.00;101293.44;5011069;28;20097;-74
2021/11/24 07:48:57;;;;;;;26.13;3.33;;;;;;;9.18;100.00;101294.94;5006169;28;20040;-75
2021/11/24 07:51:24;;;;;;;20.50;2.40;;;;;;;9.05;100.00;101267.00;5008369;28;20022;-75
2021/11/24 07:53:49;;;;;;;19.63;3.33;;;;;;;9.05;100.00;101275.06;5009631;28;20022;-75
2021/11/24 07:56:15;;;;;;;23.60;3.05;;;;;;;9.07;100.00;101286.44;5009458;28;20033;-75
2021/11/24 07:58:41;;;;;;;19.15;2.63;;;;;;;9.15;100.00;101283.72;5007342;28;20026;-74
2021/11/24 08:01:08;;;;;;;17.90;2.47;;;;;;;9.21;100.00;101298.28;5012390;28;20899;-76
2021/11/24 08:03:34;;;;;;;15.05;2.30;;;;;;;9.21;100.00;101298.28;5009519;28;20057;-75
2021/11/24 08:05:59;;;;;;;18.95;2.95;;;;;;;9.19;100.00;101298.44;5005713;28;20065;-75
2021/11/24 08:08:25;;;;;;;19.23;2.00;;;;;;;9.21;100.00;101306.34;5005835;28;20154;-75
2021/11/24 08:10:50;;;;;;;11.45;1.70;;;;;;;9.24;100.00;101297.91;5010127;28;20022;-76
2021/11/24 08:13:19;;;;;;;16.10;2.53;;;;;;;9.20;100.00;101286.69;4998274;28;20030;-76
2021/11/24 08:15:45;;;;;;;19.38;2.45;;;;;;;9.19;100.00;101274.28;5011562;28;20054;-75
2021/11/24 08:18:11;;;;;;;14.85;2.08;;;;;;;9.30;100.00;101297.19;5012376;28;20053;-76
2021/11/24 08:20:36;;;;;;;21.33;2.95;;;;;;;9.28;100.00;101300.06;5015844;28;20460;-75
2021/11/24 08:23:02;;;;;;;20.35;2.55;;;;;;;9.33;100.00;101297.66;5015829;28;20026;-76
2021/11/24 08:25:28;;;;;;;28.30;3.40;;;;;;;9.37;100.00;101299.00;5014790;28;20118;-76
2021/11/24 08:27:53;;;;;;;10.80;1.58;;;;;;;9.20;100.00;101286.69;5013210;28;20037;-76
2021/11/24 08:30:20;;;;;;;13.18;2.20;;;;;;;9.26;100.00;101302.09;5010399;28;20116;-75
2021/11/24 08:32:45;;;;;;;14.60;2.65;;;;;;;9.10;100.00;101260.06;4995122;28;20033;-75
2021/11/24 08:35:11;;;;;;;17.65;2.78;;;;;;;9.29;100.00;101282.94;5013362;28;20048;-76
2021/11/24 08:37:36;;;;;;;11.40;1.92;;;;;;;9.37;100.00;101284.72;5013796;28;20071;-76
2021/11/24 08:40:03;;;;;;;16.80;2.03;;;;;;;9.37;100.00;101288.25;5008781;28;20022;-76
2021/11/24 08:42:28;;;;;;;18.13;2.33;;;;;;;9.34;100.00;101279.72;5010058;28;20406;-75
2021/11/24 08:44:54;;;;;;;18.42;2.72;;;;;;;9.35;100.00;101268.78;5005613;28;20167;-75
2021/11/24 08:47:20;;;;;;;16.90;2.40;;;;;;;9.50;100.00;101279.56;5005603;28;20037;-76
2021/11/24 08:49:45;;;;;;;21.20;2.80;;;;;;;9.45;100.00;101268.56;5022542;28;20368;-76
2021/11/24 08:52:11;;;;;;;14.48;2.42;;;;;;;9.55;100.00;101281.72;5006636;28;20037;-76
2021/11/24 08:54:37;;;;;;;14.48;2.30;;;;;;;9.56;100.00;101272.66;5006024;28;20022;-75
2021/11/24 08:57:04;;;;;;;13.88;2.10;;;;;;;9.58;100.00;101273.31;5005768;28;20030;-75
2021/11/24 08:59:29;;;;;;;18.35;2.67;;;;;;;9.60;100.00;101266.75;5009951;28;20060;-75
2021/11/24 09:01:55;;;;;;;16.23;2.17;;;;;;;9.63;100.00;101262.84;5012020;28;20372;-76
2021/11/24 09:04:21;;;;;;;17.23;2.10;;;;;;;9.68;100.00;101265.00;5011379;28;20742;-75
2021/11/24 09:06:47;;;;;;;15.88;2.13;;;;;;;9.71;100.00;101280.75;5005613;28;20042;-74
2021/11/24 09:09:13;;;;;;;11.77;2.00;;;;;;;9.70;100.00;101281.75;5009961;28;20047;-76
2021/11/24 09:11:38;;;;;;;11.60;2.10;;;;;;;9.67;100.00;101282.97;5019808;28;20061;-75
2021/11/24 09:14:04;;;;;;;12.02;1.50;;;;;;;9.53;99.78;101284.59;5013368;28;20065;-75
2021/11/24 09:16:29;;;;;;;13.57;1.95;;;;;;;9.52;98.53;101274.03;5012908;28;20076;-75
2021/11/24 09:18:55;;;;;;;15.25;1.83;;;;;;;9.62;97.86;101293.44;5010518;28;20029;-75
2021/11/24 09:21:23;;;;;;;13.45;1.95;;;;;;;9.60;98.20;101276.63;5009134;28;20091;-75
2021/11/24 09:23:50;;;;;;;17.52;2.50;;;;;;;9.49;98.67;101255.59;5009191;28;20027;-75
2021/11/24 09:27:01;;;;;;;18.40;2.75;;;;;;;9.64;98.51;101294.09;5006058;28;20037;-75
2021/11/24 09:29:04;;;;;;;14.90;2.13;;;;;;;9.57;99.05;101272.47;5002611;28;20034;-75
2021/11/24 09:31:30;;;;;;;11.80;1.98;;;;;;;9.67;99.23;101288.34;5013809;28;20025;-76
2021/11/24 09:33:55;;;;;;;17.92;2.70;;;;;;;9.67;98.92;101285.66;4978657;28;20026;-75
2021/11/24 09:36:21;;;;;;;16.00;1.98;;;;;;;9.67;98.40;101282.13;5011205;28;20034;-75
2021/11/24 09:38:46;;;;;;;14.88;2.13;;;;;;;9.64;98.44;101280.66;5012169;28;20017;-75
2021/11/24 09:41:14;;;;;;;11.30;1.60;;;;;;;9.59;97.54;101283.88;5011264;28;20034;-75
2021/11/24 09:43:46;;;;;;;11.90;2.30;;;;;;;9.57;97.62;101277.00;4995374;28;20030;-75
2021/11/24 09:46:13;;;;;;;11.35;1.80;;;;;;;9.63;98.45;101269.06;5011866;28;20095;-75
2021/11/24 09:48:41;;;;;;;11.98;1.50;;;;;;;9.67;98.47;101288.34;5013070;28;20042;-75
2021/11/24 09:51:07;;;;;;;17.77;1.60;;;;;;;9.59;98.06;101269.59;5012891;28;20026;-75
2021/11/24 09:53:34;;;;;;;16.08;2.20;;;;;;;9.70;98.62;101281.75;5010474;28;20085;-75
2021/11/24 09:56:00;;;;;;;13.07;1.98;;;;;;;9.73;98.58;101279.53;5004845;28;20362;-75
2021/11/24 09:58:34;;;;;;;10.27;2.03;;;;;;;9.59;98.31;101267.75;5008485;28;20033;-75
2021/11/24 10:01:00;;;;;;;8.67;1.40;;;;;;;9.74;97.20;101297.34;5007566;28;20052;-75
2021/11/24 10:03:26;;;;;;;11.73;2.00;;;;;;;9.68;97.25;101295.38;5009939;28;20733;-75
2021/11/24 10:05:52;;;;;;;10.73;1.23;;;;;;;9.64;96.09;101294.09;5009869;28;20389;-75
2021/11/24 10:08:18;;;;;;;7.80;1.48;;;;;;;9.61;96.56;101294.44;5011768;28;20847;-75
2021/11/24 10:10:45;;;;;;;7.82;1.50;;;;;;;9.56;96.32;101278.84;5009381;28;20044;-75
2021/11/24 10:13:11;;;;;;;6.53;1.10;;;;;;;9.51;96.62;101270.50;5025068;28;20025;-75
2021/11/24 10:15:48;;;;;;;11.60;1.48;;;;;;;9.50;95.91;101268.00;5008556;28;20032;-75
2021/11/24 10:18:21;;;;;;;6.72;1.05;;;;;;;9.54;95.64;101272.00;5009478;28;20121;-75
2021/11/24 10:21:06;;;;;;;6.97;1.00;;;;;;;9.55;95.63;101262.94;5015749;28;20061;-75
2021/11/24 10:23:38;;;;;;;8.85;1.40;;;;;;;9.50;96.64;101254.56;5010337;28;20048;-75
2021/11/24 10:26:32;;;;;;;9.52;1.23;;;;;;;9.52;96.07;101244.47;5009477;28;20034;-75
2021/11/24 10:29:06;;;;;;;8.60;1.88;;;;;;;9.43;97.05;101235.66;5012432;28;20029;-76
2021/11/24 10:32:00;;;;;;;12.48;1.67;;;;;;;9.52;97.33;101248.00;5013468;28;20083;-75
2021/11/24 10:34:36;;;;;;;13.55;2.10;;;;;;;9.56;97.20;101243.94;5014900;28;20467;-76
2021/11/24 10:37:10;;;;;;;11.75;1.38;;;;;;;9.62;97.21;101242.38;5012573;28;20030;-76
2021/11/24 10:39:54;;;;;;;8.98;1.13;;;;;;;9.64;97.62;101251.09;5010689;28;20036;-76
2021/11/24 10:42:22;;;;;;;8.63;1.73;;;;;;;9.57;98.39;101244.75;5013753;28;20034;-76
2021/11/24 10:44:50;;;;;;;12.32;1.65;;;;;;;9.54;97.57;101242.47;5013980;28;20026;-76
2021/11/24 10:47:17;;;;;;;10.73;1.17;;;;;;;9.41;97.51;101235.84;5013811;28;20084;-75
2021/11/24 10:49:51;;;;;;;8.65;1.15;;;;;;;9.38;97.21;101241.56;5013794;28;20029;-75
2021/11/24 10:52:23;;;;;;;10.15;1.40;;;;;;;9.37;97.45;101245.28;5014527;28;20060;-75
2021/11/24 10:55:14;;;;;;;16.08;2.45;;;;;;;9.36;97.01;101242.75;5015513;28;20029;-75
2021/11/24 10:57:42;;;;;;;8.60;0.93;;;;;;;9.32;96.70;101249.50;5013629;28;20021;-74
2021/11/24 11:00:12;;;;;;;8.70;1.10;;;;;;;9.28;95.98;101235.63;4994313;28;20061;-75
2021/11/24 11:02:43;;;;;;;9.10;1.17;;;;;;;9.34;95.78;101231.38;5007770;28;20010;-75
2021/11/24 11:05:13;;;;;;;8.32;1.20;;;;;;;9.38;94.85;101225.47;5007516;28;20533;-75
2021/11/24 11:07:49;;;;;;;9.15;1.02;;;;;;;9.37;94.48;101222.94;5009577;28;20065;-76
2021/11/24 11:10:20;;;;;;;5.90;0.73;;;;;;;9.25;94.33;101202.91;5012620;28;20217;-75
2021/11/24 11:12:52;;;;;;;10.48;1.80;;;;;;;9.19;94.65;101193.72;5013338;28;20353;-75
2021/11/24 11:15:23;;;;;;;4.63;0.70;;;;;;;9.37;94.66;101205.00;5009833;28;20487;-75
2021/11/24 11:17:56;;;;;;;8.15;1.08;;;;;;;9.40;94.57;101212.69;5013663;28;20030;-75
2021/11/24 11:20:24;;;;;;;8.60;1.48;;;;;;;9.42;95.04;101204.44;5011446;28;20176;-75
2021/11/24 11:23:19;;;;;;;8.70;1.23;;;;;;;9.51;94.96;101221.34;5017637;28;20032;-75